Time;durP1;ratioP1;P1;durP2;ratioP2;P2;SDS_P1;SDS_P2;PMS_P1;PMS_P2;Temp;Humidity;BMP_temperature;BMP_pressure;BME280_temperature;BME280_humidity;BME280_pressure;Samples;Min_cycle;Max_cycle;Signal;HPM_P1;HPM_P2
2024/02/15 06:01:10;;;;;;;6.05;1.98;;;9.00;88.30;;;;;;4495065;23;20513;-74
2024/02/15 06:03:12;;;;;;;7.25;2.30;;;8.90;88.40;;;;;;4054850;29;20113;-75
2024/02/15 06:05:16;;;;;;;4.85;2.10;;;8.80;89.00;;;;;;4054324;29;20049;-75
2024/02/15 06:07:18;;;;;;;4.80;1.90;;;8.80;89.60;;;;;;4053167;29;20084;-76
2024/02/15 06:09:21;;;;;;;8.15;2.25;;;8.80;89.70;;;;;;4054360;29;20049;-77
2024/02/15 06:11:23;;;;;;;5.15;2.13;;;8.80;88.70;;;;;;4054518;29;20513;-78
2024/02/15 06:13:27;;;;;;;5.57;2.38;;;8.80;89.90;;;;;;4053944;29;20052;-77
2024/02/15 06:15:28;;;;;;;5.68;2.50;;;8.80;90.00;;;;;;4054438;29;20120;-77
2024/02/15 06:17:31;;;;;;;4.28;2.00;;;8.70;89.90;;;;;;4053963;29;20045;-77
2024/02/15 06:19:33;;;;;;;4.68;2.28;;;8.80;89.80;;;;;;4053817;29;20116;-76
2024/02/15 06:21:35;;;;;;;5.22;2.22;;;8.70;90.00;;;;;;4054055;29;20618;-77
2024/02/15 06:23:37;;;;;;;5.88;2.38;;;8.70;90.00;;;;;;4054135;29;20052;-76
2024/02/15 06:25:39;;;;;;;4.95;2.38;;;8.70;90.10;;;;;;4053700;29;20059;-75
2024/02/15 06:27:42;;;;;;;5.47;2.17;;;8.70;90.00;;;;;;4053933;29;20108;-75
2024/02/15 06:41:20;;;;;;;6.55;2.35;;;8.90;88.10;;;;;;4053923;29;20060;-76
2024/02/15 06:43:22;;;;;;;5.90;2.70;;;8.90;88.30;;;;;;4048068;29;20053;-77
2024/02/15 06:45:24;;;;;;;5.18;2.10;;;8.80;88.60;;;;;;4038259;29;20088;-77
2024/02/15 06:47:26;;;;;;;5.45;2.20;;;8.90;88.70;;;;;;4038401;29;20060;-78
2024/02/15 06:49:28;;;;;;;4.63;2.08;;;8.90;88.70;;;;;;4046097;29;20109;-75
2024/02/15 06:51:30;;;;;;;5.57;2.53;;;8.90;88.80;;;;;;4053923;29;20462;-75
2024/02/15 06:53:32;;;;;;;5.20;2.40;;;8.90;88.70;;;;;;4053481;29;20048;-78
2024/02/15 06:55:36;;;;;;;4.47;2.38;;;9.00;89.00;;;;;;4053504;29;20387;-76
2024/02/15 06:57:40;;;;;;;7.20;2.30;;;9.00;89.00;;;;;;4053784;29;20056;-76
2024/02/15 06:59:42;;;;;;;6.18;2.40;;;9.00;88.80;;;;;;4053457;29;20402;-76
2024/02/15 07:01:43;;;;;;;5.38;2.17;;;9.00;88.40;;;;;;4053196;29;20498;-76
2024/02/15 07:03:45;;;;;;;5.60;2.42;;;9.00;88.40;;;;;;4053461;29;20535;-76
2024/02/15 07:05:48;;;;;;;6.30;2.40;;;9.00;88.30;;;;;;4053251;29;20048;-76
2024/02/15 07:07:50;;;;;;;5.82;2.38;;;9.10;88.30;;;;;;4053450;29;20143;-76
2024/02/15 07:09:51;;;;;;;4.93;2.42;;;9.10;88.10;;;;;;4053231;29;20159;-77
2024/02/15 07:11:53;;;;;;;7.85;2.25;;;9.00;87.90;;;;;;4053353;29;20052;-77
2024/02/15 07:13:55;;;;;;;4.32;2.20;;;9.10;87.70;;;;;;4053216;29;20052;-75
2024/02/15 07:15:57;;;;;;;5.20;2.70;;;8.90;87.40;;;;;;4053344;29;20053;-76
2024/02/15 07:17:59;;;;;;;5.47;2.50;;;8.90;87.30;;;;;;4052842;29;20105;-76
2024/02/15 07:20:00;;;;;;;6.65;2.55;;;8.90;87.90;;;;;;4053288;29;20384;-76
2024/02/15 07:22:04;;;;;;;6.95;2.88;;;9.00;88.10;;;;;;4053066;29;20056;-76
2024/02/15 07:24:06;;;;;;;5.00;2.45;;;9.00;87.80;;;;;;4053411;29;20086;-76
2024/02/15 07:26:12;;;;;;;7.82;1.90;;;9.00;86.60;;;;;;4053602;29;20391;-76
2024/02/15 07:28:14;;;;;;;8.27;2.40;;;9.00;86.30;;;;;;4056714;29;20052;-75
2024/02/15 07:30:16;;;;;;;5.47;2.33;;;9.00;87.20;;;;;;4057588;29;20108;-76
2024/02/15 07:32:18;;;;;;;6.75;2.53;;;9.00;87.80;;;;;;4058316;29;20048;-76
2024/02/15 07:34:20;;;;;;;6.88;2.92;;;9.10;87.70;;;;;;4056691;29;20049;-77
2024/02/15 07:36:23;;;;;;;4.97;2.60;;;9.20;87.70;;;;;;4054668;29;20060;-77
2024/02/15 07:38:26;;;;;;;9.07;3.33;;;9.20;87.70;;;;;;4053624;29;20056;-78
2024/02/15 07:40:28;;;;;;;6.97;3.00;;;9.20;87.50;;;;;;4053491;29;20088;-76
2024/02/15 07:42:30;;;;;;;6.60;3.50;;;9.30;87.30;;;;;;4053053;29;20099;-77
2024/02/15 07:44:34;;;;;;;7.00;3.28;;;9.30;87.20;;;;;;4051507;29;20521;-76
2024/02/15 07:46:38;;;;;;;6.15;2.80;;;9.30;87.30;;;;;;4052663;29;20056;-77
2024/02/15 07:48:44;;;;;;;5.93;3.00;;;9.30;87.30;;;;;;4053082;29;20044;-77
2024/02/15 07:50:46;;;;;;;5.03;2.67;;;9.30;87.20;;;;;;4052858;29;20052;-77
2024/02/15 07:52:47;;;;;;;6.05;2.90;;;9.20;87.30;;;;;;4052774;29;20048;-77
2024/02/15 07:54:52;;;;;;;5.97;3.00;;;9.10;87.60;;;;;;4053011;29;20096;-77
2024/02/15 07:56:54;;;;;;;7.78;3.30;;;9.10;87.70;;;;;;4052973;29;20092;-76
2024/02/15 07:58:56;;;;;;;6.88;2.97;;;9.10;88.10;;;;;;4052820;29;20044;-77
2024/02/15 08:00:59;;;;;;;7.65;2.95;;;9.30;88.00;;;;;;4052724;29;20065;-78
2024/02/15 08:03:01;;;;;;;8.88;3.58;;;9.30;87.70;;;;;;4053000;29;20091;-76
2024/02/15 08:05:05;;;;;;;10.80;4.78;;;9.40;87.50;;;;;;4052896;29;20103;-77
2024/02/15 08:07:10;;;;;;;10.95;4.05;;;9.40;87.50;;;;;;4052797;29;20049;-75
2024/02/15 08:09:13;;;;;;;9.27;4.32;;;9.50;87.20;;;;;;4052826;29;20051;-77
2024/02/15 08:11:18;;;;;;;9.15;4.07;;;9.60;86.80;;;;;;4052870;29;20052;-78
2024/02/15 08:13:22;;;;;;;7.70;3.78;;;9.60;86.70;;;;;;4053072;29;20423;-77
2024/02/15 08:15:27;;;;;;;9.75;3.42;;;9.60;86.60;;;;;;4052690;29;20093;-77
2024/02/15 08:17:29;;;;;;;8.95;3.70;;;9.70;86.50;;;;;;4052937;29;20045;-78
2024/02/15 08:19:30;;;;;;;7.40;3.33;;;9.80;86.30;;;;;;4052995;29;20049;-77
2024/02/15 08:21:36;;;;;;;7.82;3.60;;;9.90;86.20;;;;;;4052839;29;20479;-78
2024/02/15 08:23:38;;;;;;;9.02;3.78;;;9.90;86.00;;;;;;4053177;29;20045;-76
2024/02/15 08:25:41;;;;;;;7.03;3.67;;;10.00;85.80;;;;;;4052682;29;20056;-76
2024/02/15 08:27:49;;;;;;;8.75;3.97;;;10.00;85.80;;;;;;4052750;29;20064;-78
2024/02/15 08:29:51;;;;;;;10.27;3.97;;;10.00;85.60;;;;;;4052900;29;20151;-77
2024/02/15 08:31:53;;;;;;;7.72;3.35;;;10.10;85.40;;;;;;4055603;29;20052;-77
2024/02/15 08:33:53;;;;;;;6.10;2.88;;;10.10;84.90;;;;;;4055566;29;20081;-76
2024/02/15 08:35:55;;;;;;;6.65;3.00;;;10.20;84.70;;;;;;4055465;29;20048;-76
2024/02/15 08:37:57;;;;;;;6.47;3.22;;;10.20;84.50;;;;;;4055773;29;20053;-77
2024/02/15 08:39:59;;;;;;;7.50;3.58;;;10.30;84.50;;;;;;4056446;29;20116;-78
2024/02/15 08:42:01;;;;;;;7.30;3.67;;;10.20;84.50;;;;;;4055651;29;20056;-76
2024/02/15 08:44:09;;;;;;;8.63;3.85;;;10.20;84.80;;;;;;4056501;29;20510;-79
2024/02/15 08:46:11;;;;;;;7.28;3.83;;;10.20;86.00;;;;;;4049740;29;20048;-76
2024/02/15 08:48:12;;;;;;;11.90;4.00;;;10.10;85.50;;;;;;4054764;29;20052;-76
2024/02/15 08:50:15;;;;;;;11.05;4.15;;;10.10;85.80;;;;;;4055427;29;20135;-75
2024/02/15 08:52:18;;;;;;;8.55;3.63;;;10.20;85.90;;;;;;4055421;29;20045;-77
2024/02/15 08:54:21;;;;;;;8.48;3.80;;;10.30;86.20;;;;;;4055910;29;20053;-75
2024/02/15 08:56:23;;;;;;;7.10;3.22;;;10.40;85.10;;;;;;4055909;29;20052;-76
2024/02/15 08:58:26;;;;;;;9.00;3.83;;;10.40;84.70;;;;;;4055227;29;20088;-76
2024/02/15 09:00:29;;;;;;;7.30;3.50;;;10.50;84.80;;;;;;4055228;29;20048;-77
2024/02/15 09:02:32;;;;;;;6.55;3.00;;;10.50;84.70;;;;;;4055317;29;20048;-76
2024/02/15 09:04:34;;;;;;;8.15;3.20;;;10.60;84.40;;;;;;4055061;29;20045;-77
2024/02/15 09:06:36;;;;;;;8.23;3.22;;;10.60;84.20;;;;;;4055292;29;20490;-78
2024/02/15 09:08:38;;;;;;;6.85;3.20;;;10.70;84.00;;;;;;4055205;29;20117;-78
2024/02/15 09:10:40;;;;;;;6.22;2.95;;;10.70;83.90;;;;;;4055218;29;20045;-78
2024/02/15 09:12:47;;;;;;;6.38;2.72;;;10.70;83.80;;;;;;4055223;29;20096;-77
2024/02/15 09:14:48;;;;;;;5.90;2.80;;;10.80;83.80;;;;;;4055104;29;20406;-77
2024/02/15 09:16:52;;;;;;;8.07;2.95;;;10.80;83.40;;;;;;4054843;29;20124;-77
2024/02/15 09:18:54;;;;;;;6.55;2.60;;;10.80;83.60;;;;;;4054485;29;20091;-78
2024/02/15 09:20:57;;;;;;;6.97;2.97;;;10.80;83.60;;;;;;4054854;29;20505;-78
2024/02/15 09:23:04;;;;;;;6.88;2.65;;;10.90;83.60;;;;;;4048599;29;20094;-77
2024/02/15 09:25:07;;;;;;;6.53;2.75;;;10.90;83.30;;;;;;4039078;29;20076;-77
2024/02/15 09:27:11;;;;;;;6.35;2.90;;;10.90;83.20;;;;;;4039217;29;20053;-76
2024/02/15 09:29:13;;;;;;;7.63;2.65;;;10.90;83.20;;;;;;4039224;29;20464;-76
2024/02/15 09:31:15;;;;;;;8.90;3.00;;;11.00;83.30;;;;;;4039049;29;20049;-75
2024/02/15 09:33:20;;;;;;;4.95;2.50;;;11.00;83.10;;;;;;4039253;29;20547;-76
2024/02/15 09:35:22;;;;;;;7.80;3.30;;;11.00;83.00;;;;;;4039032;29;20109;-77
2024/02/15 09:37:26;;;;;;;6.90;3.47;;;11.00;83.90;;;;;;4039046;29;20553;-75
2024/02/15 09:39:27;;;;;;;7.05;2.75;;;11.00;84.40;;;;;;4039095;29;20049;-77
2024/02/15 09:41:29;;;;;;;5.90;2.90;;;11.00;84.30;;;;;;4038808;29;20479;-76
2024/02/15 09:43:31;;;;;;;7.32;2.70;;;11.20;83.90;;;;;;4047426;29;20048;-76
2024/02/15 09:45:35;;;;;;;5.78;2.60;;;11.20;83.60;;;;;;4054431;29;20530;-76
2024/02/15 09:47:38;;;;;;;6.43;3.10;;;11.30;83.50;;;;;;4052848;29;20135;-75
2024/02/15 09:49:41;;;;;;;6.50;2.75;;;11.30;83.20;;;;;;4054212;29;20113;-78
2024/02/15 09:51:44;;;;;;;4.90;2.90;;;11.30;82.80;;;;;;4054381;29;20048;-76
2024/02/15 09:53:48;;;;;;;6.60;2.83;;;11.40;82.70;;;;;;4054218;29;20100;-77
2024/02/15 09:55:50;;;;;;;7.35;2.90;;;11.50;82.70;;;;;;4054237;29;20156;-77
2024/02/15 09:57:52;;;;;;;6.05;2.53;;;11.50;82.50;;;;;;4054254;29;20108;-78
2024/02/15 09:59:54;;;;;;;6.05;2.60;;;11.60;82.50;;;;;;4053792;29;20052;-78
2024/02/15 10:02:00;;;;;;;6.43;2.45;;;11.60;82.30;;;;;;4053832;29;20064;-78
2024/02/15 10:04:06;;;;;;;5.75;2.60;;;11.60;82.20;;;;;;4053992;29;20059;-78
2024/02/15 10:06:09;;;;;;;6.65;2.88;;;11.70;82.10;;;;;;4054185;29;20089;-77
2024/02/15 10:08:11;;;;;;;6.65;3.50;;;11.80;82.10;;;;;;4053945;29;20053;-78
2024/02/15 10:10:19;;;;;;;6.53;3.00;;;11.80;81.80;;;;;;4053983;29;20135;-77
2024/02/15 10:12:22;;;;;;;9.60;3.95;;;11.80;81.30;;;;;;4054090;29;20049;-79
2024/02/15 10:14:24;;;;;;;8.77;3.60;;;11.90;81.30;;;;;;4053869;29;20143;-77
2024/02/15 10:16:26;;;;;;;9.32;3.38;;;11.90;81.10;;;;;;4054110;29;20061;-77
2024/02/15 10:18:28;;;;;;;7.05;3.22;;;12.00;80.80;;;;;;4053910;29;20055;-78
2024/02/15 10:20:31;;;;;;;7.32;3.40;;;12.00;80.60;;;;;;4045027;29;20061;-77
2024/02/15 10:22:34;;;;;;;15.35;3.70;;;12.00;80.60;;;;;;4036773;29;20474;-77
2024/02/15 10:24:36;;;;;;;8.88;3.22;;;12.10;80.10;;;;;;4036548;29;20125;-77
2024/02/15 10:26:37;;;;;;;8.25;3.70;;;12.10;80.00;;;;;;4036394;29;20053;-77
2024/02/15 10:28:39;;;;;;;6.85;3.42;;;12.10;80.00;;;;;;4038299;29;20543;-77
2024/02/15 10:30:44;;;;;;;6.03;2.85;;;12.20;80.00;;;;;;4051704;29;20052;-78
2024/02/15 10:32:48;;;;;;;7.13;2.95;;;12.20;79.60;;;;;;4051771;29;20536;-78
2024/02/15 10:34:50;;;;;;;6.53;2.85;;;12.30;79.70;;;;;;4051763;29;20056;-79
2024/02/15 10:36:51;;;;;;;8.90;2.97;;;12.30;79.70;;;;;;4051682;29;20109;-77
2024/02/15 10:39:10;;;;;;;6.25;3.00;;;12.40;80.10;;;;;;4049846;29;20120;-77
2024/02/15 10:41:12;;;;;;;7.07;2.72;;;12.40;79.80;;;;;;4052050;29;20139;-79
2024/02/15 10:43:17;;;;;;;6.53;3.00;;;12.50;79.50;;;;;;4051573;29;20060;-77
2024/02/15 10:45:20;;;;;;;6.25;2.60;;;12.50;78.80;;;;;;4061414;29;20139;-76
2024/02/15 10:47:22;;;;;;;5.95;2.83;;;12.60;78.80;;;;;;4051294;29;20053;-77
2024/02/15 10:49:25;;;;;;;7.30;2.58;;;12.60;78.90;;;;;;4056213;29;20128;-78
2024/02/15 10:51:27;;;;;;;8.10;3.10;;;12.60;78.20;;;;;;4051791;29;20053;-77
2024/02/15 10:53:33;;;;;;;8.48;3.15;;;12.70;78.30;;;;;;4059357;29;20111;-79
2024/02/15 10:55:48;;;;;;;6.70;3.10;;;12.70;78.60;;;;;;4067123;29;20144;-76
2024/02/15 10:57:52;;;;;;;5.88;3.13;;;12.80;78.40;;;;;;4067139;29;20052;-77
2024/02/15 10:59:58;;;;;;;6.70;3.50;;;12.80;78.30;;;;;;4050917;29;20056;-77
2024/02/15 11:02:00;;;;;;;14.02;3.90;;;12.90;78.60;;;;;;4051165;29;20491;-76
2024/02/15 11:04:08;;;;;;;10.88;3.65;;;12.90;78.70;;;;;;4051392;29;20056;-77
2024/02/15 11:06:10;;;;;;;8.90;3.78;;;13.00;78.30;;;;;;4051396;29;20055;-75
2024/02/15 11:08:13;;;;;;;11.48;3.47;;;13.10;78.00;;;;;;4051116;29;20052;-75
2024/02/15 11:10:16;;;;;;;9.30;3.50;;;13.10;77.40;;;;;;4051448;29;20060;-75
2024/02/15 11:12:20;;;;;;;6.63;2.90;;;13.10;76.90;;;;;;4051245;29;20055;-76
2024/02/15 11:14:28;;;;;;;6.78;2.80;;;13.20;76.30;;;;;;4051408;29;20080;-76
2024/02/15 11:16:51;;;;;;;6.35;2.10;;;13.20;75.80;;;;;;4055013;29;20090;-77
2024/02/15 11:18:55;;;;;;;8.10;2.80;;;13.30;74.90;;;;;;4050365;29;20088;-76
2024/02/15 11:20:59;;;;;;;5.80;2.80;;;13.40;75.60;;;;;;4050495;29;20406;-77
2024/02/15 11:23:03;;;;;;;8.50;2.72;;;13.40;75.60;;;;;;4054924;29;20074;-75
2024/02/15 11:25:08;;;;;;;6.65;2.13;;;13.50;75.40;;;;;;4066317;29;20052;-76
2024/02/15 11:27:13;;;;;;;5.28;2.22;;;13.60;74.40;;;;;;4066359;29;20052;-76
2024/02/15 11:29:55;;;;;;;4.45;1.67;;;13.70;74.40;;;;;;4066412;29;20107;-75
2024/02/15 11:31:56;;;;;;;5.35;1.80;;;13.80;73.30;;;;;;4065848;29;20052;-79
2024/02/15 11:33:58;;;;;;;4.72;1.83;;;13.80;72.30;;;;;;4066439;29;20107;-79
2024/02/15 11:36:05;;;;;;;8.70;2.03;;;13.90;71.70;;;;;;4066467;29;20055;-80
2024/02/15 11:38:13;;;;;;;5.68;1.80;;;14.00;73.30;;;;;;4064585;29;20103;-79
2024/02/15 11:40:16;;;;;;;6.95;1.80;;;14.20;73.80;;;;;;4066406;29;20087;-78
2024/02/15 11:42:29;;;;;;;14.07;6.65;;;14.30;75.00;;;;;;4066352;29;20087;-79
2024/02/15 11:44:32;;;;;;;18.02;7.80;;;14.40;72.90;;;;;;4066540;29;20044;-76
2024/02/15 11:46:35;;;;;;;8.90;2.45;;;14.50;74.90;;;;;;4066532;29;20478;-78
2024/02/15 11:48:39;;;;;;;5.45;1.95;;;14.60;70.80;;;;;;4058818;29;20108;-76
2024/02/15 11:50:41;;;;;;;35.33;4.20;;;14.70;70.10;;;;;;4050678;29;20052;-77
2024/02/15 11:52:45;;;;;;;6.10;2.30;;;14.80;74.00;;;;;;4051165;29;20407;-78
2024/02/15 11:54:48;;;;;;;4.78;1.70;;;15.00;73.30;;;;;;4058905;29;20135;-78
2024/02/15 11:57:04;;;;;;;6.18;1.70;;;15.10;72.30;;;;;;4066542;29;20067;-78
2024/02/15 11:59:07;;;;;;;7.47;1.85;;;15.30;70.40;;;;;;4066595;29;20198;-77
2024/02/15 12:19:56;;;;;;;5.70;1.50;;;16.40;62.20;;;;;;4053204;29;20059;-78
2024/02/15 12:21:58;;;;;;;4.97;1.33;;;16.50;61.10;;;;;;4053375;29;20521;-77
2024/02/15 12:24:00;;;;;;;5.85;1.60;;;16.70;61.00;;;;;;4053394;29;20060;-78
2024/02/15 12:26:03;;;;;;;4.30;1.42;;;16.80;60.50;;;;;;4053309;29;20048;-77
2024/02/15 12:28:05;;;;;;;5.68;1.50;;;16.90;60.20;;;;;;4053487;29;20155;-79
2024/02/15 12:30:09;;;;;;;4.05;1.50;;;17.00;59.40;;;;;;4053444;29;20131;-78
2024/02/15 12:32:11;;;;;;;4.50;1.40;;;17.20;59.80;;;;;;4053241;29;20697;-78
2024/02/15 12:34:13;;;;;;;3.72;1.20;;;17.30;59.90;;;;;;4053526;29;20053;-77
2024/02/15 12:36:17;;;;;;;5.05;1.30;;;17.40;58.40;;;;;;4053276;29;20869;-78
2024/02/15 12:38:19;;;;;;;6.75;1.50;;;17.50;58.90;;;;;;4051254;29;20473;-78
2024/02/15 12:40:22;;;;;;;4.15;1.52;;;17.60;58.60;;;;;;4053293;29;20059;-76
2024/02/15 12:42:25;;;;;;;5.03;1.70;;;17.70;58.70;;;;;;4053321;29;20550;-77
2024/02/15 12:44:30;;;;;;;5.07;1.38;;;17.70;57.60;;;;;;4053044;29;20416;-78
2024/02/15 12:46:32;;;;;;;5.00;1.52;;;17.80;57.60;;;;;;4053175;29;20113;-78
2024/02/15 12:48:35;;;;;;;5.63;1.65;;;18.00;57.70;;;;;;4052979;29;20388;-77
2024/02/15 12:50:38;;;;;;;7.85;2.80;;;18.10;57.10;;;;;;4051665;29;20056;-75
2024/02/15 12:52:43;;;;;;;6.32;2.50;;;18.20;57.30;;;;;;4053062;29;20143;-78
2024/02/15 12:54:45;;;;;;;3.53;1.67;;;18.30;57.00;;;;;;4060819;29;20139;-78
2024/02/15 12:56:48;;;;;;;4.93;1.67;;;18.30;56.50;;;;;;4068308;29;20056;-78
2024/02/15 12:58:50;;;;;;;6.50;1.73;;;18.40;57.10;;;;;;4068577;29;20434;-78
2024/02/15 13:00:58;;;;;;;5.20;1.50;;;18.50;56.60;;;;;;4068126;29;20064;-78
2024/02/15 13:03:03;;;;;;;6.65;1.88;;;18.60;56.50;;;;;;4068344;29;20135;-78
2024/02/15 13:05:07;;;;;;;20.73;9.60;;;18.70;56.50;;;;;;4068454;29;20056;-78
2024/02/15 13:07:09;;;;;;;10.00;4.07;;;18.80;56.00;;;;;;4068290;29;20064;-78
2024/02/15 13:09:13;;;;;;;6.10;2.20;;;18.80;56.00;;;;;;4067934;29;20505;-76
2024/02/15 13:11:15;;;;;;;6.40;1.70;;;18.90;55.60;;;;;;4068555;29;20059;-78
2024/02/15 13:13:17;;;;;;;5.70;1.60;;;19.00;55.30;;;;;;4068195;29;20056;-78
2024/02/15 13:15:21;;;;;;;5.07;1.65;;;19.10;55.60;;;;;;4068434;29;20383;-76
2024/02/15 13:17:23;;;;;;;3.97;1.50;;;19.20;55.40;;;;;;4067557;29;20055;-77
2024/02/15 13:19:24;;;;;;;4.40;1.63;;;19.30;54.50;;;;;;4068438;29;20060;-77
2024/02/15 13:21:30;;;;;;;5.97;1.48;;;19.40;54.50;;;;;;4068619;29;20056;-78
2024/02/15 13:23:32;;;;;;;4.43;1.38;;;19.50;54.30;;;;;;4054267;29;20570;-79
2024/02/15 13:25:36;;;;;;;5.75;1.80;;;19.60;54.40;;;;;;4053451;29;20091;-78
2024/02/15 13:27:38;;;;;;;4.55;1.50;;;19.60;53.90;;;;;;4054989;29;20478;-77
2024/02/15 13:29:41;;;;;;;7.43;1.77;;;19.60;53.90;;;;;;4055196;29;20076;-79
2024/02/15 13:31:43;;;;;;;4.68;1.42;;;19.60;53.80;;;;;;4056404;29;20486;-77
2024/02/15 13:33:44;;;;;;;4.85;1.70;;;19.70;53.40;;;;;;4056381;29;20108;-77
2024/02/15 13:35:46;;;;;;;4.90;1.50;;;19.80;53.10;;;;;;4056016;29;20061;-78
2024/02/15 13:37:48;;;;;;;5.10;1.40;;;19.80;52.60;;;;;;4057439;29;20064;-76
2024/02/15 13:39:51;;;;;;;4.53;1.30;;;19.90;52.30;;;;;;4058336;29;20049;-77
2024/02/15 13:41:54;;;;;;;3.92;1.50;;;19.90;52.70;;;;;;4054665;29;20460;-78
2024/02/15 13:43:56;;;;;;;5.78;1.30;;;20.00;52.10;;;;;;4054245;29;20125;-77
2024/02/15 13:45:58;;;;;;;4.70;1.40;;;20.10;51.80;;;;;;4053071;29;20140;-78
2024/02/15 13:48:01;;;;;;;4.20;1.35;;;20.30;51.50;;;;;;4056558;29;20062;-77
2024/02/15 13:50:04;;;;;;;4.30;1.23;;;20.70;51.40;;;;;;4061141;29;20063;-78
2024/02/15 13:52:06;;;;;;;4.25;1.45;;;21.30;49.80;;;;;;4058060;29;20418;-77
2024/02/15 13:54:08;;;;;;;5.07;1.30;;;21.60;49.20;;;;;;4062732;29;20091;-76
2024/02/15 13:56:10;;;;;;;5.90;2.70;;;21.70;47.70;;;;;;4073341;29;20476;-77
2024/02/15 13:58:13;;;;;;;6.80;3.97;;;22.00;47.60;;;;;;4071835;29;20060;-75
2024/02/15 14:00:22;;;;;;;9.82;3.58;;;22.60;46.90;;;;;;4070122;29;20096;-77
2024/02/15 14:02:23;;;;;;;6.32;2.30;;;22.60;46.50;;;;;;4069988;29;20553;-78
2024/02/15 14:04:26;;;;;;;4.72;1.65;;;22.20;47.00;;;;;;4070385;29;20064;-78
2024/02/15 14:06:29;;;;;;;5.78;1.58;;;21.70;46.40;;;;;;4070195;29;20723;-77
2024/02/15 14:08:30;;;;;;;3.72;1.48;;;21.40;47.70;;;;;;4069811;29;20091;-79
2024/02/15 14:10:34;;;;;;;3.20;1.10;;;21.10;48.30;;;;;;4069470;29;20060;-79
2024/02/15 14:12:39;;;;;;;4.60;1.10;;;20.70;48.60;;;;;;4069263;29;20501;-78
2024/02/15 14:14:42;;;;;;;5.95;1.40;;;20.70;49.00;;;;;;4056926;29;20139;-77
2024/02/15 14:16:44;;;;;;;4.00;1.23;;;20.70;49.30;;;;;;4052110;29;20044;-79
2024/02/15 14:18:47;;;;;;;4.85;1.50;;;20.90;49.20;;;;;;4053118;29;20056;-78
2024/02/15 14:20:49;;;;;;;5.18;1.60;;;21.00;49.10;;;;;;4053859;29;20437;-78
2024/02/15 14:22:55;;;;;;;6.05;1.48;;;21.00;48.70;;;;;;4053939;29;20055;-78
2024/02/15 14:24:56;;;;;;;6.35;1.80;;;21.00;48.80;;;;;;4054053;29;20526;-78
2024/02/15 14:26:58;;;;;;;4.75;1.65;;;21.10;48.60;;;;;;4052531;29;20053;-78
2024/02/15 14:29:02;;;;;;;3.75;1.55;;;21.20;48.40;;;;;;4042176;29;20049;-78
2024/02/15 14:33:25;;;;;;;6.50;2.10;;;21.70;47.80;;;;;;4048533;29;20412;-78
2024/02/15 14:35:27;;;;;;;6.00;1.80;;;21.80;47.60;;;;;;4038557;29;20053;-78
2024/02/15 14:37:29;;;;;;;6.50;1.88;;;21.90;47.20;;;;;;4038240;29;20132;-79
2024/02/15 14:39:31;;;;;;;4.30;1.60;;;22.10;46.80;;;;;;4038347;29;20453;-78
2024/02/15 14:41:32;;;;;;;3.05;1.33;;;22.20;46.60;;;;;;4038326;29;20052;-79
2024/02/15 14:43:33;;;;;;;4.88;1.58;;;22.30;46.00;;;;;;4038151;29;20053;-79
2024/02/15 14:45:37;;;;;;;5.35;1.38;;;22.40;45.80;;;;;;4043241;29;20109;-77
2024/02/15 14:47:42;;;;;;;4.68;1.50;;;22.60;45.20;;;;;;4053691;29;20139;-76
2024/02/15 14:49:44;;;;;;;4.95;1.40;;;22.90;44.40;;;;;;4053391;29;20048;-78
2024/02/15 14:51:45;;;;;;;4.68;1.35;;;23.20;43.90;;;;;;4053665;29;20053;-78
2024/02/15 14:53:49;;;;;;;4.45;1.50;;;23.70;42.80;;;;;;4053590;29;20051;-76
2024/02/15 14:55:51;;;;;;;4.97;1.65;;;23.90;42.20;;;;;;4069170;29;20116;-76
2024/02/15 14:57:53;;;;;;;5.22;1.90;;;24.00;42.00;;;;;;4069059;29;20051;-76
2024/02/15 14:59:55;;;;;;;5.28;1.70;;;24.10;41.80;;;;;;4069045;29;20105;-78
2024/02/15 15:01:57;;;;;;;4.18;1.60;;;24.50;41.10;;;;;;4068993;29;20498;-79
2024/02/15 15:04:05;;;;;;;3.15;1.70;;;24.90;40.20;;;;;;4069044;29;20052;-76
2024/02/15 15:13:09;;;;;;;4.65;1.33;;;26.10;36.60;;;;;;4051551;29;20059;-78
2024/02/15 15:15:12;;;;;;;4.80;1.42;;;26.10;37.00;;;;;;4051015;29;20071;-77
2024/02/15 15:17:16;;;;;;;6.20;1.50;;;25.70;36.70;;;;;;4051423;29;20493;-78
2024/02/15 15:19:19;;;;;;;3.30;1.27;;;25.40;36.90;;;;;;4050523;29;20056;-76
2024/02/15 15:21:22;;;;;;;3.28;1.30;;;25.10;37.20;;;;;;4045064;29;20045;-77
2024/02/15 15:23:24;;;;;;;3.70;1.30;;;24.90;37.10;;;;;;4050884;29;20191;-78
2024/02/15 15:25:27;;;;;;;3.88;1.35;;;24.80;37.30;;;;;;4054705;29;20056;-78
2024/02/15 15:27:29;;;;;;;4.05;1.40;;;24.50;38.10;;;;;;4051108;29;20060;-78
2024/02/15 15:29:32;;;;;;;3.25;1.30;;;24.20;38.40;;;;;;4049152;29;20084;-78
2024/02/15 15:31:33;;;;;;;3.13;1.27;;;24.00;38.40;;;;;;4049525;29;20057;-80
2024/02/15 15:33:36;;;;;;;3.97;1.38;;;23.60;39.60;;;;;;4050921;29;20144;-78
2024/02/15 15:35:39;;;;;;;3.50;1.58;;;23.30;39.30;;;;;;4050726;29;20056;-78
2024/02/15 15:37:41;;;;;;;6.57;1.30;;;23.20;40.10;;;;;;4050932;29;20059;-78
2024/02/15 15:39:43;;;;;;;4.72;1.60;;;22.80;40.10;;;;;;4052375;29;20045;-78
2024/02/15 15:41:45;;;;;;;3.63;1.58;;;22.40;40.80;;;;;;4054319;29;20060;-78
2024/02/15 15:43:47;;;;;;;3.63;1.38;;;22.00;41.50;;;;;;4053945;29;20108;-78
2024/02/15 15:45:49;;;;;;;3.45;1.30;;;21.70;42.20;;;;;;4053979;29;20050;-79
2024/02/15 15:47:51;;;;;;;3.85;1.30;;;21.40;42.70;;;;;;4054363;29;20067;-78
2024/02/15 15:49:58;;;;;;;2.88;1.13;;;21.10;43.50;;;;;;4054349;29;20455;-77
2024/02/15 15:52:01;;;;;;;2.70;1.30;;;21.00;43.80;;;;;;4054578;29;20045;-79
2024/02/15 15:54:03;;;;;;;2.85;1.15;;;20.80;44.30;;;;;;4053949;29;20056;-78
2024/02/15 15:56:06;;;;;;;3.55;1.40;;;20.60;44.60;;;;;;4053594;29;20045;-75
2024/02/15 15:58:07;;;;;;;4.35;1.40;;;20.40;44.60;;;;;;4053870;29;20057;-76
2024/02/15 16:00:12;;;;;;;4.15;1.40;;;20.30;44.80;;;;;;4054036;29;20112;-78
2024/02/15 16:02:17;;;;;;;3.60;1.52;;;20.00;44.70;;;;;;4053985;29;20060;-77
2024/02/15 16:04:22;;;;;;;3.55;1.33;;;19.80;45.40;;;;;;4053785;29;20064;-78
2024/02/15 16:06:24;;;;;;;4.30;1.75;;;19.60;45.80;;;;;;4053572;29;20521;-77
2024/02/15 16:08:26;;;;;;;3.67;1.70;;;19.40;46.30;;;;;;4050952;29;20096;-76
2024/02/15 16:10:28;;;;;;;4.00;1.40;;;19.20;47.20;;;;;;4052949;29;20064;-77
2024/02/15 16:12:29;;;;;;;4.22;1.67;;;19.00;49.10;;;;;;4043766;29;20056;-77
2024/02/15 16:14:31;;;;;;;6.38;1.75;;;18.90;50.30;;;;;;4045115;29;20049;-76
2024/02/15 16:16:33;;;;;;;4.68;1.52;;;18.70;50.80;;;;;;4051228;29;20127;-77
2024/02/15 16:18:35;;;;;;;4.32;1.33;;;18.60;50.40;;;;;;4050834;29;20120;-78
2024/02/15 16:20:38;;;;;;;7.50;2.83;;;18.50;50.00;;;;;;4051532;29;20049;-79
2024/02/15 16:22:39;;;;;;;7.05;2.33;;;18.40;50.30;;;;;;4050744;29;20052;-78
2024/02/15 16:24:43;;;;;;;5.97;2.10;;;18.30;50.10;;;;;;4052058;29;20534;-76
2024/02/15 16:26:44;;;;;;;7.88;2.05;;;18.20;50.00;;;;;;4051662;29;20049;-77
2024/02/15 16:28:46;;;;;;;14.73;4.32;;;18.10;49.70;;;;;;4044835;29;20487;-77
2024/02/15 16:30:49;;;;;;;7.32;2.70;;;18.00;50.00;;;;;;4049700;29;20052;-76
2024/02/15 16:32:51;;;;;;;12.27;3.50;;;17.90;50.60;;;;;;4051479;29;20669;-77
2024/02/15 16:34:54;;;;;;;4.90;2.08;;;17.80;51.00;;;;;;4052026;29;20493;-79
2024/02/15 16:36:56;;;;;;;6.47;1.95;;;17.60;50.80;;;;;;4045044;29;20053;-76
2024/02/15 16:38:59;;;;;;;6.07;2.50;;;17.50;51.00;;;;;;4050459;29;20514;-78
2024/02/15 16:41:02;;;;;;;5.05;1.80;;;17.40;51.60;;;;;;4051595;29;20059;-78
2024/02/15 16:43:04;;;;;;;4.38;1.50;;;17.30;51.50;;;;;;4051205;29;20052;-79
2024/02/15 16:45:07;;;;;;;4.05;1.70;;;17.30;51.70;;;;;;4051887;29;20455;-78
2024/02/15 16:47:09;;;;;;;4.03;1.80;;;17.10;51.90;;;;;;4051255;29;20096;-79
2024/02/15 16:49:11;;;;;;;3.90;1.52;;;17.00;52.20;;;;;;4048012;29;20048;-78
2024/02/15 16:51:14;;;;;;;5.38;1.75;;;16.90;52.60;;;;;;4050044;29;20104;-78
2024/02/15 16:53:17;;;;;;;4.38;1.67;;;16.80;52.90;;;;;;4051166;29;20049;-77
2024/02/15 16:55:19;;;;;;;6.10;1.70;;;16.70;53.30;;;;;;4044721;29;20547;-75
2024/02/15 16:57:23;;;;;;;4.25;1.80;;;16.60;53.80;;;;;;4050952;29;20741;-79
2024/02/15 16:59:25;;;;;;;4.72;1.80;;;16.60;54.10;;;;;;4050804;29;20201;-76
2024/02/15 17:01:27;;;;;;;5.43;2.17;;;16.50;54.50;;;;;;4051276;29;20064;-78
2024/02/15 17:03:29;;;;;;;4.57;1.90;;;16.40;54.70;;;;;;4052393;29;20044;-78
2024/02/15 17:05:31;;;;;;;4.60;1.80;;;16.30;54.80;;;;;;4051353;29;20100;-77
2024/02/15 17:07:32;;;;;;;5.50;2.00;;;16.30;55.00;;;;;;4051324;29;20052;-77
2024/02/15 17:09:35;;;;;;;5.32;2.20;;;16.20;55.40;;;;;;4051303;29;20124;-79
2024/02/15 17:11:39;;;;;;;5.38;1.92;;;16.20;55.60;;;;;;4051491;29;20049;-78
2024/02/15 17:13:45;;;;;;;10.23;3.60;;;16.10;55.70;;;;;;4051993;29;20057;-79
2024/02/15 17:15:46;;;;;;;8.55;3.38;;;16.10;55.80;;;;;;4051536;29;20379;-79
2024/02/15 17:17:49;;;;;;;4.68;2.05;;;16.00;56.10;;;;;;4049058;29;20060;-77
2024/02/15 17:19:51;;;;;;;4.95;2.20;;;15.90;56.30;;;;;;4050920;29;20084;-77
2024/02/15 17:21:53;;;;;;;4.88;2.10;;;15.90;56.60;;;;;;4051455;29;20086;-79